Spotswood, New Jersey
Current Conditions -  °F | °C
As of 6:15 AM on Thursday 23 Oct 2014 (Local Time) from KLDJ Reporting Station
Moderate Rain Moderate Rain  
Wind Chill: 13°   Ceiling: 2700
Heat Index: 13°   Visibility: 5mi
Dew Point: 11°   Wind: 8mph
Humidity: 89%   Direction: 350°N
Pressure: 29.73"   Gusts: NA
Location:  40.4°N, 74.39°W
Report Text: KLDJ 231015Z AUTO 35007KT 5SM RA BKN027 OVC032 13/11 A2973 RMK AO2 P0002 T01270110
Loading
Personal Weather Stations






























Interactive Weather Map
Tropical Storm Tracking
New forecast layout! Learn more

10-Day Weather Forecast

Advertisements
Track Severe Weather on mobile